createdAt,value
2022-08-17T00:01:52.701Z,20.19
2022-08-17T00:04:23.619Z,20.12
2022-08-17T00:06:53.561Z,20.16
2022-08-17T00:09:23.342Z,20.10
2022-08-17T00:12:42.317Z,20.00
2022-08-17T00:14:45.488Z,20.03
2022-08-17T00:17:15.223Z,20.01
2022-08-17T00:19:45.001Z,20.00
2022-08-17T00:22:34.266Z,19.99
2022-08-17T00:25:05.469Z,19.89
2022-08-17T00:27:35.138Z,19.89
2022-08-17T00:30:08.917Z,19.82
2022-08-17T00:33:15.480Z,19.76
2022-08-17T00:35:33.451Z,19.72
2022-08-17T00:38:04.292Z,19.74
2022-08-17T00:40:44.191Z,19.68
2022-08-17T00:43:19.953Z,19.69
2022-08-17T00:45:52.861Z,19.67
2022-08-17T00:48:29.681Z,19.69
2022-08-17T00:51:05.768Z,19.60
2022-08-17T00:53:37.791Z,19.59
2022-08-17T00:56:10.929Z,19.52
2022-08-17T00:58:41.428Z,19.52
2022-08-17T01:01:21.718Z,19.42
2022-08-17T01:03:55.569Z,19.45
2022-08-17T01:06:30.036Z,19.36
2022-08-17T01:09:03.555Z,19.33
2022-08-17T01:11:37.299Z,19.32
2022-08-17T01:14:07.912Z,19.29
2022-08-17T01:16:40.884Z,19.27
2022-08-17T01:19:17.987Z,19.23
2022-08-17T01:21:53.546Z,19.31
2022-08-17T01:24:26.168Z,19.18
2022-08-17T01:26:56.614Z,19.21
2022-08-17T01:29:30.903Z,19.20
2022-08-17T01:32:03.758Z,19.12
2022-08-17T01:34:42.523Z,19.11
2022-08-17T01:37:14.736Z,19.04
2022-08-17T01:39:50.610Z,19.05
2022-08-17T01:42:26.551Z,18.99
2022-08-17T01:44:59.989Z,19.00
2022-08-17T01:47:29.932Z,18.94
2022-08-17T01:50:00.970Z,18.86
2022-08-17T01:52:30.747Z,18.89
2022-08-17T01:55:03.597Z,18.91
2022-08-17T01:57:33.722Z,18.84
2022-08-17T02:00:03.498Z,18.79
2022-08-17T02:02:33.251Z,18.74
2022-08-17T02:05:03.019Z,18.78
2022-08-17T02:07:33.016Z,18.74
2022-08-17T02:10:25.911Z,18.56
2022-08-17T02:13:04.319Z,18.55
2022-08-17T02:15:34.907Z,18.57
2022-08-17T02:18:05.596Z,18.56
2022-08-17T02:20:41.750Z,18.60
2022-08-17T02:23:15.233Z,18.45
2022-08-17T02:25:50.600Z,18.48
2022-08-17T02:28:21.301Z,18.40
2022-08-17T02:31:01.022Z,18.35
2022-08-17T02:33:41.652Z,18.35
2022-08-17T02:36:14.788Z,18.37
2022-08-17T02:38:44.986Z,18.34
2022-08-17T02:41:17.376Z,18.40
2022-08-17T02:43:47.068Z,18.37
2022-08-17T02:46:16.833Z,18.32
2022-08-17T02:48:46.537Z,18.25
2022-08-17T02:51:16.705Z,18.32
2022-08-17T02:53:46.920Z,18.28
2022-08-17T02:56:19.304Z,18.29
2022-08-17T02:58:49.299Z,18.23
2022-08-17T03:01:19.303Z,18.20
2022-08-17T03:03:49.540Z,18.19
2022-08-17T03:06:19.624Z,18.15
2022-08-17T03:08:49.405Z,18.14
2022-08-17T03:11:22.118Z,18.09
2022-08-17T03:13:51.898Z,18.05
2022-08-17T03:16:21.610Z,18.03
2022-08-17T03:18:51.451Z,17.89
2022-08-17T03:21:21.184Z,17.76
2022-08-17T03:23:54.428Z,17.68
2022-08-17T03:26:29.813Z,17.67
2022-08-17T03:28:59.691Z,17.63
2022-08-17T03:31:29.400Z,17.84
2022-08-17T03:33:59.270Z,17.80
2022-08-17T03:36:29.674Z,17.85
2022-08-17T03:39:01.145Z,17.87
2022-08-17T03:41:33.788Z,17.85
2022-08-17T03:44:03.471Z,17.85
2022-08-17T03:46:45.632Z,17.83
2022-08-17T03:49:27.765Z,17.77
2022-08-17T03:52:10.379Z,17.72
2022-08-17T03:55:01.590Z,17.75
2022-08-17T03:57:34.435Z,17.73
2022-08-17T04:00:04.757Z,17.68
2022-08-17T04:02:36.585Z,17.73
2022-08-17T04:05:06.777Z,17.66
2022-08-17T04:07:36.498Z,17.65
2022-08-17T04:10:07.053Z,17.60
2022-08-17T04:12:52.972Z,17.63
2022-08-17T04:15:23.331Z,17.64
2022-08-17T04:17:53.504Z,17.52
2022-08-17T04:20:24.963Z,17.53
2022-08-17T04:23:05.873Z,17.48
2022-08-17T04:25:38.623Z,17.55
2022-08-17T04:28:16.078Z,17.36
2022-08-17T04:30:48.094Z,17.32
2022-08-17T04:33:20.394Z,17.31
2022-08-17T04:35:52.485Z,17.34
2022-08-17T04:38:26.333Z,17.31
2022-08-17T04:41:09.197Z,17.21
2022-08-17T04:43:43.989Z,17.20
2022-08-17T04:46:16.185Z,17.29
2022-08-17T04:48:48.648Z,17.29
2022-08-17T04:51:21.211Z,17.23
2022-08-17T04:53:55.099Z,16.96
2022-08-17T04:56:26.580Z,17.13
2022-08-17T04:59:00.660Z,17.20
2022-08-17T05:01:32.316Z,17.23
2022-08-17T05:04:33.506Z,17.31
2022-08-17T05:06:54.698Z,17.28
2022-08-17T05:09:24.787Z,17.35
2022-08-17T05:11:55.261Z,17.41
2022-08-17T05:14:33.201Z,17.46
2022-08-17T05:17:04.158Z,17.52
2022-08-17T05:19:39.286Z,17.56
2022-08-17T05:22:09.087Z,17.57
2022-08-17T05:24:43.510Z,17.68
2022-08-17T05:27:20.065Z,17.60
2022-08-17T05:29:52.639Z,17.61
2022-08-17T05:32:37.921Z,17.63
2022-08-17T05:35:11.083Z,17.62
2022-08-17T05:37:40.763Z,17.71
2022-08-17T05:40:11.461Z,17.74
2022-08-17T05:42:41.382Z,17.81
2022-08-17T05:45:15.838Z,17.84
2022-08-17T05:47:53.880Z,17.94
2022-08-17T05:50:34.336Z,18.00
2022-08-17T05:53:10.279Z,18.06
2022-08-17T05:55:49.914Z,18.13
2022-08-17T05:58:27.052Z,18.27
2022-08-17T06:01:08.411Z,18.39
2022-08-17T06:03:45.990Z,18.49
2022-08-17T06:06:31.222Z,18.67
2022-08-17T06:09:14.943Z,18.77
2022-08-17T06:11:53.549Z,18.94
2022-08-17T06:14:35.756Z,19.10
2022-08-17T06:17:14.799Z,19.18
2022-08-17T06:19:50.580Z,19.26
2022-08-17T06:22:24.723Z,19.38
2022-08-17T06:25:01.120Z,19.33
2022-08-17T06:27:35.787Z,19.38
2022-08-17T06:30:11.557Z,19.54
2022-08-17T06:32:46.576Z,19.92
2022-08-17T06:35:18.811Z,20.46
2022-08-17T06:38:00.480Z,20.67
2022-08-17T06:40:52.622Z,20.98
2022-08-17T06:43:35.002Z,21.21
2022-08-17T06:46:11.506Z,22.00
2022-08-17T06:49:01.518Z,22.70
2022-08-17T06:51:38.331Z,23.16
2022-08-17T06:54:12.211Z,23.41
2022-08-17T06:56:53.761Z,23.88
2022-08-17T06:59:55.755Z,24.92
2022-08-17T07:03:02.093Z,25.18
2022-08-17T07:05:36.913Z,25.19
2022-08-17T07:08:18.945Z,25.14
2022-08-17T07:10:51.592Z,25.57
2022-08-17T07:13:41.067Z,26.12
2022-08-17T07:16:20.678Z,26.64
2022-08-17T07:18:53.280Z,26.54
2022-08-17T07:21:40.998Z,26.60
2022-08-17T07:24:29.408Z,26.29
2022-08-17T07:27:18.293Z,26.04
2022-08-17T07:29:51.951Z,25.99
2022-08-17T07:32:25.896Z,25.98
2022-08-17T07:35:15.601Z,26.59
2022-08-17T07:37:54.583Z,27.08
2022-08-17T07:40:31.302Z,27.51
2022-08-17T07:43:23.299Z,27.55
2022-08-17T07:46:13.577Z,28.27
2022-08-17T07:48:46.511Z,28.21
2022-08-17T07:51:40.979Z,28.76
2022-08-17T07:54:25.091Z,28.73
2022-08-17T07:56:56.980Z,29.10
2022-08-17T07:59:31.122Z,29.03
2022-08-17T08:02:33.765Z,29.56
2022-08-17T08:05:10.030Z,29.27
2022-08-17T08:07:45.176Z,28.53
2022-08-17T08:10:27.981Z,27.98
2022-08-17T08:13:06.478Z,27.69
2022-08-17T08:15:39.515Z,27.33
2022-08-17T08:18:54.639Z,26.97
2022-08-17T08:21:21.173Z,26.62
2022-08-17T08:24:02.358Z,26.35
2022-08-17T08:26:44.552Z,26.03
2022-08-17T08:29:28.365Z,25.96
2022-08-17T08:32:05.581Z,25.64
2022-08-17T08:35:01.167Z,25.53
2022-08-17T08:37:43.115Z,25.38
2022-08-17T08:40:27.827Z,25.23
2022-08-17T08:43:11.327Z,25.16
2022-08-17T08:45:50.393Z,24.99
2022-08-17T08:48:52.843Z,25.10
2022-08-17T08:51:36.780Z,25.07
2022-08-17T08:54:14.163Z,25.05
2022-08-17T08:57:21.558Z,24.92
2022-08-17T08:59:51.189Z,24.81
2022-08-17T09:02:46.763Z,24.72
2022-08-17T09:05:29.082Z,24.71
2022-08-17T09:08:13.938Z,24.68
2022-08-17T09:10:56.906Z,24.59
2022-08-17T09:13:37.894Z,24.47
2022-08-17T09:16:15.435Z,24.43
2022-08-17T09:19:03.527Z,24.41
2022-08-17T09:21:48.015Z,24.35
2022-08-17T09:24:27.956Z,24.33
2022-08-17T09:27:05.158Z,24.31
2022-08-17T09:29:40.867Z,24.26
2022-08-17T09:32:20.428Z,24.33
2022-08-17T09:34:55.044Z,24.32
2022-08-17T09:37:32.370Z,24.28
2022-08-17T09:40:12.827Z,24.28
2022-08-17T09:42:48.246Z,24.27
2022-08-17T09:45:36.589Z,24.24
2022-08-17T09:48:15.028Z,24.27
2022-08-17T09:51:05.300Z,24.22
2022-08-17T09:53:38.719Z,24.22
2022-08-17T09:56:36.880Z,24.10
2022-08-17T09:59:38.154Z,24.11
2022-08-17T10:02:42.467Z,24.04
2022-08-17T10:05:21.656Z,24.05
2022-08-17T10:07:58.585Z,24.07
2022-08-17T10:10:32.570Z,24.15
2022-08-17T10:13:10.455Z,24.23
2022-08-17T10:15:51.911Z,24.28
2022-08-17T10:18:37.821Z,24.37
2022-08-17T10:21:40.706Z,24.50
2022-08-17T10:24:30.001Z,24.58
2022-08-17T10:27:02.920Z,24.69
2022-08-17T10:29:49.169Z,24.80
2022-08-17T10:32:32.776Z,24.79
2022-08-17T10:35:19.045Z,24.80
2022-08-17T10:38:04.257Z,24.73
2022-08-17T10:40:47.316Z,24.70
2022-08-17T10:43:33.061Z,24.68
2022-08-17T10:46:30.813Z,24.68
2022-08-17T10:49:27.419Z,24.76
2022-08-17T10:52:00.031Z,24.84
2022-08-17T10:54:50.046Z,24.90
2022-08-17T10:57:43.152Z,24.86
2022-08-17T11:00:17.639Z,24.92
2022-08-17T11:02:53.871Z,24.91
2022-08-17T11:05:46.145Z,24.87
2022-08-17T11:08:46.968Z,24.88
2022-08-17T11:11:53.881Z,24.87
2022-08-17T11:14:41.909Z,24.88
2022-08-17T11:17:24.996Z,24.92
2022-08-17T11:20:14.104Z,24.97
2022-08-17T11:23:08.014Z,24.84
2022-08-17T11:25:41.980Z,24.79
2022-08-17T11:28:19.434Z,24.69
2022-08-17T11:30:53.209Z,24.71
2022-08-17T11:33:53.568Z,24.54
2022-08-17T11:36:36.773Z,24.45
2022-08-17T11:39:19.335Z,24.37
2022-08-17T11:41:57.704Z,24.20
2022-08-17T11:44:44.596Z,24.11
2022-08-17T11:47:33.517Z,24.00
2022-08-17T11:50:45.159Z,23.90
2022-08-17T11:53:45.962Z,23.90
2022-08-17T11:56:34.913Z,23.90
2022-08-17T11:59:05.374Z,23.85
2022-08-17T12:01:59.213Z,23.89
2022-08-17T12:04:31.733Z,24.04
2022-08-17T12:07:09.398Z,24.06
2022-08-17T12:09:44.031Z,24.07
2022-08-17T12:12:19.148Z,24.17
2022-08-17T12:15:09.526Z,24.24
2022-08-17T12:17:46.899Z,24.34
2022-08-17T12:20:24.462Z,24.46
2022-08-17T12:23:04.278Z,24.58
2022-08-17T12:25:40.878Z,24.66
2022-08-17T12:28:24.408Z,24.79
2022-08-17T12:30:55.118Z,24.85
2022-08-17T12:33:28.971Z,24.89
2022-08-17T12:36:03.243Z,24.92
2022-08-17T12:38:35.147Z,24.95
2022-08-17T12:41:26.931Z,25.00
2022-08-17T12:44:02.264Z,25.11
2022-08-17T12:46:36.167Z,25.20
2022-08-17T12:49:26.595Z,25.32
2022-08-17T12:52:05.092Z,25.50
2022-08-17T12:54:43.128Z,25.68
2022-08-17T12:57:17.267Z,25.79
2022-08-17T12:59:52.070Z,25.88
2022-08-17T13:02:35.118Z,25.95
2022-08-17T13:05:09.988Z,26.05
2022-08-17T13:07:46.703Z,26.16
2022-08-17T13:10:22.440Z,26.25
2022-08-17T13:12:53.743Z,26.22
2022-08-17T13:15:29.762Z,26.24
2022-08-17T13:18:04.203Z,26.40
2022-08-17T13:20:38.104Z,26.40
2022-08-17T13:23:12.569Z,26.60
2022-08-17T13:25:42.580Z,26.61
2022-08-17T13:28:30.646Z,26.76
2022-08-17T13:31:24.195Z,26.93
2022-08-17T13:33:53.982Z,27.19
2022-08-17T13:36:30.216Z,27.18
2022-08-17T13:39:10.257Z,27.37
2022-08-17T13:41:41.450Z,27.64
2022-08-17T13:44:37.151Z,27.87
2022-08-17T13:47:08.902Z,27.99
2022-08-17T13:49:41.876Z,28.09
2022-08-17T13:52:41.400Z,28.30
2022-08-17T13:55:20.798Z,28.38
2022-08-17T13:58:03.988Z,28.40
2022-08-17T14:00:39.635Z,28.37
2022-08-17T14:03:09.384Z,28.40
2022-08-17T14:05:42.227Z,28.47
2022-08-17T14:08:17.233Z,28.51
2022-08-17T14:10:47.229Z,28.56
2022-08-17T14:13:17.385Z,28.61
2022-08-17T14:15:54.562Z,28.56
2022-08-17T14:18:50.660Z,28.60
2022-08-17T14:21:17.619Z,28.64
2022-08-17T14:23:54.765Z,28.69
2022-08-17T14:26:24.847Z,28.69
2022-08-17T14:28:56.907Z,28.68
2022-08-17T14:31:27.780Z,28.74
2022-08-17T14:33:59.032Z,28.82
2022-08-17T14:36:28.805Z,28.86
2022-08-17T14:39:01.171Z,28.82
2022-08-17T14:41:30.945Z,28.81
2022-08-17T14:44:00.684Z,28.63
2022-08-17T14:46:30.550Z,28.58
2022-08-17T14:49:00.449Z,28.63
2022-08-17T14:51:32.765Z,28.58
2022-08-17T14:54:05.644Z,28.66
2022-08-17T14:56:37.936Z,28.58
2022-08-17T14:59:08.070Z,28.54
2022-08-17T15:01:38.275Z,28.51
2022-08-17T15:04:08.280Z,28.46
2022-08-17T15:06:38.900Z,28.44
2022-08-17T15:09:11.217Z,28.40
2022-08-17T15:11:41.193Z,28.38
2022-08-17T15:14:11.236Z,28.34
2022-08-17T15:16:41.022Z,28.33
2022-08-17T15:19:11.426Z,28.21
2022-08-17T15:21:41.222Z,28.16
2022-08-17T15:24:13.620Z,28.10
2022-08-17T15:26:43.591Z,28.11
2022-08-17T15:29:13.345Z,28.07
2022-08-17T15:31:43.171Z,28.09
2022-08-17T15:34:12.844Z,28.14
2022-08-17T15:36:49.180Z,28.03
2022-08-17T15:39:22.227Z,28.05
2022-08-17T15:41:58.679Z,28.13
2022-08-17T15:44:30.083Z,28.05
2022-08-17T15:47:02.435Z,28.08
2022-08-17T15:49:32.119Z,28.12
2022-08-17T15:52:01.883Z,28.11
2022-08-17T15:54:37.069Z,28.02
2022-08-17T15:57:08.685Z,27.92
2022-08-17T15:59:38.481Z,27.81
2022-08-17T16:03:14.013Z,27.71
2022-08-17T16:05:10.098Z,27.46
2022-08-17T16:07:40.534Z,27.38
2022-08-17T16:10:18.687Z,27.24
2022-08-17T16:12:49.958Z,27.22
2022-08-17T16:15:21.609Z,27.18
2022-08-17T16:17:51.638Z,27.15
2022-08-17T16:20:21.515Z,27.11
2022-08-17T16:22:52.695Z,27.07
2022-08-17T16:25:40.312Z,26.99
2022-08-17T16:28:20.189Z,26.86
2022-08-17T16:30:49.905Z,26.83
2022-08-17T16:33:19.607Z,26.75
2022-08-17T16:35:49.334Z,26.71
2022-08-17T16:38:19.474Z,26.61
2022-08-17T16:40:51.836Z,26.58
2022-08-17T16:43:21.770Z,26.51
2022-08-17T16:45:52.238Z,26.47
2022-08-17T16:48:22.073Z,26.40
2022-08-17T16:51:02.952Z,26.30
2022-08-17T16:53:34.513Z,26.30
2022-08-17T16:56:07.753Z,26.28
2022-08-17T16:58:40.772Z,26.18
2022-08-17T17:01:11.728Z,26.12
2022-08-17T17:03:45.544Z,26.04
2022-08-17T17:06:22.571Z,26.05
2022-08-17T17:08:59.253Z,25.96
2022-08-17T17:11:36.487Z,25.90
2022-08-17T17:14:09.883Z,25.83
2022-08-17T17:16:45.855Z,25.76
2022-08-17T17:19:34.377Z,25.68
2022-08-17T17:22:12.428Z,25.63
2022-08-17T17:24:50.351Z,25.59
2022-08-17T17:27:33.644Z,25.48
2022-08-17T17:30:11.415Z,25.44
2022-08-17T17:32:47.110Z,25.37
2022-08-17T17:35:20.865Z,25.37
2022-08-17T17:37:51.331Z,25.31
2022-08-17T17:40:25.446Z,25.28
2022-08-17T17:43:27.260Z,25.23
2022-08-17T17:45:58.897Z,25.15
2022-08-17T17:48:48.569Z,25.12
2022-08-17T17:52:01.962Z,25.08
2022-08-17T17:54:32.558Z,25.03
2022-08-17T17:57:10.928Z,24.97
2022-08-17T17:59:52.597Z,24.97
2022-08-17T18:02:53.190Z,24.89
2022-08-17T18:05:46.770Z,24.77
2022-08-17T18:08:32.318Z,24.73
2022-08-17T18:11:11.803Z,24.63
2022-08-17T18:13:56.449Z,24.54
2022-08-17T18:16:32.003Z,24.46
2022-08-17T18:19:02.903Z,24.40
2022-08-17T18:21:38.891Z,24.31
2022-08-17T18:24:11.554Z,24.24
2022-08-17T18:26:49.888Z,24.25
2022-08-17T18:29:34.502Z,24.24
2022-08-17T18:32:35.392Z,24.16
2022-08-17T18:35:29.426Z,24.11
2022-08-17T18:38:00.946Z,24.09
2022-08-17T18:40:38.067Z,24.06
2022-08-17T18:43:15.147Z,24.04
2022-08-17T18:45:49.373Z,24.06
2022-08-17T18:48:32.831Z,24.08
2022-08-17T18:51:07.856Z,24.03
2022-08-17T18:53:42.014Z,23.99
2022-08-17T18:56:30.718Z,23.99
2022-08-17T18:59:19.941Z,24.01
2022-08-17T19:02:11.586Z,23.95
2022-08-17T19:05:00.663Z,23.88
2022-08-17T19:07:33.459Z,23.84
2022-08-17T19:10:12.935Z,23.78
2022-08-17T19:12:46.906Z,23.78
2022-08-17T19:15:20.026Z,23.71
2022-08-17T19:17:57.459Z,23.66
2022-08-17T19:20:34.497Z,23.69
2022-08-17T19:23:14.379Z,23.60
2022-08-17T19:25:54.681Z,23.69
2022-08-17T19:28:29.863Z,23.61
2022-08-17T19:31:02.084Z,23.52
2022-08-17T19:33:32.520Z,23.37
2022-08-17T19:36:10.570Z,23.33
2022-08-17T19:38:48.187Z,23.40
2022-08-17T19:41:25.492Z,23.39
2022-08-17T19:44:11.565Z,23.34
2022-08-17T19:46:58.380Z,23.34
2022-08-17T19:49:45.757Z,23.29
2022-08-17T19:52:33.078Z,23.28
2022-08-17T19:55:07.833Z,23.30
2022-08-17T19:57:52.284Z,23.23
2022-08-17T20:00:22.340Z,23.18
2022-08-17T20:03:05.637Z,23.12
2022-08-17T20:06:01.322Z,23.14
2022-08-17T20:08:40.560Z,23.08
2022-08-17T20:11:14.180Z,23.04
2022-08-17T20:13:47.228Z,22.97
2022-08-17T20:16:17.107Z,22.94
2022-08-17T20:18:56.657Z,22.80
2022-08-17T20:21:31.606Z,22.76
2022-08-17T20:24:16.865Z,22.76
2022-08-17T20:26:55.440Z,22.71
2022-08-17T20:30:18.066Z,22.68
2022-08-17T20:32:56.375Z,22.74
2022-08-17T20:35:29.980Z,22.74
2022-08-17T20:38:02.383Z,22.54
2022-08-17T20:40:39.262Z,22.49
2022-08-17T20:43:39.305Z,22.38
2022-08-17T20:46:30.159Z,22.27
2022-08-17T20:49:02.904Z,22.32
2022-08-17T20:51:39.611Z,22.35
2022-08-17T20:54:31.473Z,22.38
2022-08-17T20:57:14.090Z,22.33
2022-08-17T21:00:13.820Z,22.34
2022-08-17T21:02:45.607Z,22.33
2022-08-17T21:05:40.530Z,22.23
2022-08-17T21:08:19.281Z,22.23
2022-08-17T21:10:49.919Z,22.20
2022-08-17T21:13:49.624Z,22.13
2022-08-17T21:16:38.966Z,22.14
2022-08-17T21:19:24.583Z,22.16
2022-08-17T21:22:10.027Z,22.14
2022-08-17T21:24:53.870Z,22.15
2022-08-17T21:27:38.231Z,22.22
2022-08-17T21:30:25.691Z,22.24
2022-08-17T21:33:18.895Z,22.19
2022-08-17T21:35:54.179Z,22.24
2022-08-17T21:38:37.554Z,22.27
2022-08-17T21:41:07.880Z,22.22
2022-08-17T21:43:39.647Z,22.24
2022-08-17T21:46:26.171Z,22.25
2022-08-17T21:49:02.745Z,22.23
2022-08-17T21:51:44.897Z,22.20
2022-08-17T21:54:27.374Z,22.20
2022-08-17T21:56:58.254Z,22.20
2022-08-17T21:59:31.663Z,22.19
2022-08-17T22:02:06.850Z,22.15
2022-08-17T22:04:38.890Z,22.06
2022-08-17T22:07:12.146Z,22.05
2022-08-17T22:09:46.870Z,21.94
2022-08-17T22:12:20.748Z,21.90
2022-08-17T22:15:04.376Z,21.81
2022-08-17T22:17:40.440Z,21.73
2022-08-17T22:20:15.133Z,21.69
2022-08-17T22:23:21.853Z,21.65
2022-08-17T22:26:03.341Z,21.60
2022-08-17T22:28:42.587Z,21.43
2022-08-17T22:31:14.444Z,21.40
2022-08-17T22:33:53.135Z,21.40
2022-08-17T22:36:29.203Z,21.35
2022-08-17T22:39:00.999Z,21.33
2022-08-17T22:41:35.370Z,21.39
2022-08-17T22:44:18.769Z,21.42
2022-08-17T22:46:56.273Z,21.41
2022-08-17T22:49:33.790Z,21.30
2022-08-17T22:52:14.783Z,21.34
2022-08-17T22:54:57.814Z,21.29
2022-08-17T22:57:52.802Z,21.25
2022-08-17T23:00:40.240Z,21.26
2022-08-17T23:03:18.258Z,21.17
2022-08-17T23:06:06.385Z,21.20
2022-08-17T23:08:38.183Z,21.14
2022-08-17T23:11:09.596Z,21.00
2022-08-17T23:13:40.525Z,21.07
2022-08-17T23:16:10.325Z,20.93
2022-08-17T23:18:40.234Z,20.71
2022-08-17T23:21:15.933Z,20.72
2022-08-17T23:23:54.048Z,20.74
2022-08-17T23:26:24.627Z,20.79
2022-08-17T23:28:54.376Z,20.66
2022-08-17T23:31:26.263Z,20.50
2022-08-17T23:33:56.153Z,20.47
2022-08-17T23:36:29.652Z,20.50
2022-08-17T23:38:59.472Z,20.43
2022-08-17T23:41:32.972Z,20.37
2022-08-17T23:44:03.695Z,20.38
2022-08-17T23:46:33.734Z,20.30
2022-08-17T23:49:03.638Z,20.29
2022-08-17T23:51:42.698Z,20.13
2022-08-17T23:54:17.283Z,20.22
2022-08-17T23:56:48.541Z,20.28
2022-08-17T23:59:23.321Z,20.28
